VATSIM Germany Forum

Zurück   VATSIM Germany Forum > Community > Mitflugbörse > VATGER Rundflüge > SAG Worldtour 2004 und 2006

Hinweise

SAG Worldtour 2004 und 2006 SAG Piloten fliegen um die Welt

Antwort
 
LinkBack Themen-Optionen Ansicht
Alt 2005-03-05, 14:33   #61 (permalink)
 
Registriert seit: 2002-06-07
Beiträge: 185
Danke erteilt: 21
1 Danksagung in 1 Beitrag
Standard

hey Sven du, bist ein Scha..
Jetzt funktionagelt es, Super
Gruesschen Otti
Otto Schuler ist offline   Mit Zitat antworten
Alt 2005-03-05, 14:50   #62 (permalink)
 
Benutzerbild von Dieter Brugger
 
Registriert seit: 2002-06-02
Ort: Bodensee
Alter: 58
Beiträge: 3.275
Danke erteilt: 494
1.254 Danksagungen in 401 Beiträgen erhalten
Standard

Vielen Dank Sven, nun funzt dat. *freu*
__________________
Dieter

Dieter Brugger ist offline   Mit Zitat antworten
Alt 2005-03-05, 14:54   #63 (permalink)
 
Registriert seit: 2003-12-24
Beiträge: 715
Danke erteilt: 0
0 Danksagungen in 0 Beiträgen erhalten
Standard

Kein Problem. Hab festgestellt das es für Version 2.0 offenbar keine Patches gibt und diese nur bei avsim.ru erhältlich ist. Aber egal, haubtsache es funzt.

Hab gerade nochmal bei eurobook nachgeschaut, 16 inbounds to UAAA gebucht. Na, da werden sich die Kollegen in Russland aber freuen.
__________________
Sven Göricke
Sven Göricke ist offline   Mit Zitat antworten
Alt 2005-03-05, 15:12   #64 (permalink)
 
Benutzerbild von Kurt Wieser
 
Registriert seit: 2002-09-25
Alter: 41
Beiträge: 160
Danke erteilt: 44
56 Danksagungen in 6 Beiträgen erhalten
Standard

Servus !

Hier noch schnell ein kurzes Weter Briefing

Start: EDDM (München/FJS Intl) Ziel: UAAA (Almaty)
Entfernung: 2662 NM

Erstellt am 05.03.2005, 14:10 UTC


METAR-Meldungen
EDDM Muenchen/FJS Intl 051350Z 06004KT 8000 FEW025 BKN070 M00/M07 Q1002 NOSIG=
EDMA Augsburg 051350Z 02003KT 4500 -SN BR FEW013 BKN020 01/M04 Q1002=
ETSL Lechfeld 051320Z 29002KT 7000 -SN FEW012 BKN050 02/M05 Q1001 WHT=
ETSA Landsberg 051320Z 34004KT 4500 -SN HZ FEW020 BKN049 00/M05 Q1001 GRN=
LOLF Freistadt 051300Z VRB03KT 9999 OVC040SC OVC=
LKNA Namest Nad Oslav 051400Z 29005KT 9000 SCT035 M02/M10 Q1002=
LKTB Brno/Turany 051400Z 09004KT 6000 SCT033 M02/M08 Q1003 1029//95 NOSIG=
LKPO Prerov 051400Z 06003KT 4000 BR BKN034 M02/M08 Q1004 NOSIG=
LKHO Holesov 051300Z 04007KT 340V110 7000 FEW028 00/M07 Q1003=
LKMT Ostrava/Mosnov 051400Z 01008KT 6000 OVC021 M03/M08 Q1004 0449//93 NOSIG=
EPKK Krakow 051400Z 03006KT 7000 BKN023 M02/M07 Q1004=
EPRZ Rzeszow/Jasionka 051400Z 02006KT 8000 BKN023 M01/M04 Q1003 270///64=
UKLR Rivne 051400Z 10006MPS 4000 -SN OVC006 M00/M02 Q1004 12494532 TEMPO 1000 SN OVC003=
UKKM Kyiv/Antonov-Gostomel 051400Z 13007MPS 1400 R33/P1500U R15/P1500U SN OVC010 M04/M05 Q1010 15498035 TEMPO 1000 SN BKN003=
UAAA Almaty 051300Z 16001MPS 030V190 1700 FU BKN200 05/01 Q1020 05CLRD65 TEMPO 1000 FU RMK QFE706/0941=

TAF-FC-Vorhersagen
EDDM Muenchen/FJS Intl 051200Z 051322 06005KT 6000 SCT015 BKN040 PROB30 TEMPO 1519 4000 -SN BKN012=
EDMA Augsburg 051200Z 051322 VRB03KT 6000 SCT010 BKN025 TEMPO 1319 4000 BKN009=
LKTB Brno/Turany 051300Z 051524 06005KT 6000 SCT022 PROB30 TEMPO 1524 2500 BR BKN015=
LKHO Holesov 051000Z 051221 03010KT 5000 BR SCT035 PROB30 TEMPO 1521 2500 BR BKN017=
LKMT Ostrava/Mosnov 051300Z 051524 01006KT 7000 BKN025 PROB40 TEMPO 1524 04012KT 2500 -SN BR BKN007=
EPKK Krakow 051300Z 051524 05005KT 5000 BR BKN025 PROB30 TEMPO 1524 1500 SN BKN006=
EPRZ Rzeszow/Jasionka 051300Z 051524 05005KT 5000 BR BKN025 PROB30 TEMPO 1524 1500 SN BKN006=
UKLR Rivne 051340Z 051524 13007G12MPS 1500 SN BR OVC004 TEMPO 1524 0500 +SHSNRA OVC002 BKN010CB TX00/15Z TNM01/18Z=
UAAA Almaty 051145Z 051322 16004MPS 1200 BRFU TEMPO 1319 0600 BECMG 1920 2000 BRFU TEMPO 1922 1000=

TAF-FT-Vorhersagen
EDDM Muenchen/FJS Intl 051000Z 051812 03004KT 6000 SCT015 BKN030 PROB40 TEMPO 1804 4000 -SN BKN015=
LKTB Brno/Turany 051000Z 051812 06010KT 4000 BR SCT012 BKN030 TEMPO 1808 1500 BR BKN008 PROB30 0208 -SN BECMG 0811 33014G24KT 2000 -SN BR BKN005=
LKMT Ostrava/Mosnov 051000Z 051812 03010KT 5000 BR SCT010 BKN023 TEMPO 1824 04013KT 2500 -SN BR BKN012 BECMG 0003 2000 -SN BR SCT003 BKN012 TEMPO 0412 01018KT 1000 SN BR BKN003=
EPKK Krakow 051000Z 051812 04005KT 5000 BR BKN020 PROB40 TEMPO 1821 1000 SN BKN003 OVC010 BECMG 2123 OVC015 TEMPO 2112 0500 +SN OVC002=
UAAA Almaty 051000Z 051212 16004MPS 1200 BRFU NSC TEMPO 1222 0600 FU BECMG 2223 2000 BRFU TEMPO 2204 1000 BECMG 0405 02005MPS 5000=
__________________

www.stevens-va.de
Die wirklich unbrauchbaren Dinge in der Fliegerei:
Die Höhe über Deinen Flugzeug
Die Piste hinter Deinen Flugzeug
Der Kraftstoff an der Tankstelle
Kurt Wieser ist offline   Mit Zitat antworten
Alt 2005-03-05, 17:08   #65 (permalink)
 
Registriert seit: 2003-03-19
Ort: 1200 Wien
Alter: 30
Beiträge: 494
Danke erteilt: 204
117 Danksagungen in 34 Beiträgen erhalten
Standard

Bin nun auch erfolgreich in der Luft (OE-IJP, "BBJ" 8) ), allerdings ist es mir beim Programmieren des FMCs nicht gelungen, das W68A AI am Ende reinzuhauen... Not in Database... Habe den neuesten AIRAC installiert (0502).

...noch hab ich ja ein paar Stunden Zeit, bevor mir die Route ausgeht

mfg


Joseph
__________________
Either online as NLY1000/AUA425 or with reallife Callsigns

Joseph Pochobradsky ist offline   Mit Zitat antworten
Alt 2005-03-05, 18:39   #66 (permalink)
 
Registriert seit: 2003-03-19
Ort: 1200 Wien
Alter: 30
Beiträge: 494
Danke erteilt: 204
117 Danksagungen in 34 Beiträgen erhalten
Standard

Zitat:
Zitat von Joseph Pochobradsky
allerdings ist es mir beim Programmieren des FMCs nicht gelungen, das W68A AI am Ende reinzuhauen... Not in Database... Habe den neuesten AIRAC installiert (0502).
Problem gelöst, danke Art

Joseph
__________________
Either online as NLY1000/AUA425 or with reallife Callsigns

Joseph Pochobradsky ist offline   Mit Zitat antworten
Alt 2005-03-05, 19:09   #67 (permalink)
 
Benutzerbild von Art Vandalay
 
Registriert seit: 2003-05-21
Ort: EDDM
Alter: 41
Beiträge: 2.089
Danke erteilt: 49
112 Danksagungen in 17 Beiträgen erhalten
Standard

Bin gerade aus der Kontrollzone von Moskau Radar und es ist wirklich der Hammer was uns heute Abend geboten wird. Jetzt schon drei Stunden durchegehend guter und vor allem athmospährischer ATC (ATC auf russisch ist wie Musik in meinen Ohren ). Schade nur das der eine oder andere Pilot nicht mal die vorhandenen Dokumente zum metric levelling gelesen hat und mit den Höhenangaben in Metern daher nichts anfangen konnte - was sollen die denn von uns denken Da erbitte ich fürs nächste mal gewissenhaftere Vorbereitung 8)
Art Vandalay ist offline   Mit Zitat antworten
Alt 2005-03-05, 20:06   #68 (permalink)
 
Benutzerbild von Oliver Eisl
 
Registriert seit: 2004-09-14
Ort: Wien
Alter: 33
Beiträge: 390
Danke erteilt: 232
70 Danksagungen in 32 Beiträgen erhalten
Standard

ja klasse flug bis jetzt auch wenn ich von einem deutschen nach dem anderen überholt werde, entweder hab ich aus welchen gründen auch immer nicht so einen guten wind, oder meine M0.82 sind einfach zu wenig 8)
wieso bist denn so langsam joseph, gear down ?

Hoffentlich kommt ein fähiger Approacher online, sonst wirds ein bissl eng, sind doch sehr viele mitgekommen

Oliver Eisl ist offline   Mit Zitat antworten
Alt 2005-03-05, 20:19   #69 (permalink)
 
Registriert seit: 2002-08-06
Beiträge: 8.009
Danke erteilt: 2.872
5.926 Danksagungen in 1.389 Beiträgen erhalten
Standard

Pah! Ich blas euch alle vom LOC mit meiner MD11
837945 ist offline   Mit Zitat antworten
Alt 2005-03-05, 20:38   #70 (permalink)
 
Registriert seit: 2003-10-27
Ort: 31582 Nienburg/Weser
Alter: 43
Beiträge: 2.560
Danke erteilt: 103
478 Danksagungen in 83 Beiträgen erhalten
Standard

Wenn hier eine MD-11 irgendwas verbläst, dann ist das meine... :mrgreen: Habe grade die ersten Bilder bei den Screenshots gepostet.
Andre Koch ist offline   Mit Zitat antworten
Antwort

  VATSIM Germany Forum > Community > Mitflugbörse > VATGER Rundflüge > SAG Worldtour 2004 und 2006


Themen-Optionen
Ansicht

Forumregeln
Es ist dir nicht erlaubt, neue Themen zu verfassen.
Es ist dir nicht erlaubt, auf Beiträge zu antworten.
Es ist dir nicht erlaubt, Anhänge hochzuladen.
Es ist dir nicht erlaubt, deine Beiträge zu bearbeiten.

BB-Code ist an.
Smileys sind an.
[IMG] Code ist an.
HTML-Code ist aus.
Trackbacks are an
Pingbacks are an
Refbacks are an



Alle Zeitangaben in WEZ +2. Es ist jetzt 10:29 Uhr.


Powered by vBulletin® Version 3.8.4 (Deutsch)
Copyright ©2000 - 2017, Jelsoft Enterprises Ltd.
Template-Modifikationen durch TMS
© 2006 - 2012 vatsim-germany.org